Time;durP1;ratioP1;P1;durP2;ratioP2;P2;SDS_P1;SDS_P2;PMS_P1;PMS_P2;Temp;Humidity;BMP_temperature;BMP_pressure;BME280_temperature;BME280_humidity;BME280_pressure;Samples;Min_cycle;Max_cycle;Signal;HPM_P1;HPM_P2
2022/12/21 00:02:03;;;;;;;0.00;0.00;;;;;;;8.38;100.00;99807.91;5070783;28;20216;-73
2022/12/21 00:04:29;;;;;;;0.00;0.00;;;;;;;8.30;100.00;99814.91;5070558;28;20646;-72
2022/12/21 00:06:54;;;;;;;0.00;0.00;;;;;;;8.25;100.00;99801.44;5070669;28;20180;-72
2022/12/21 00:09:20;;;;;;;0.00;0.00;;;;;;;8.25;100.00;99806.09;5070915;28;20179;-72
2022/12/21 00:11:45;;;;;;;0.90;0.90;;;;;;;8.23;100.00;99805.56;5070894;28;20205;-72
2022/12/21 00:14:10;;;;;;;0.43;0.43;;;;;;;8.20;100.00;99803.47;5070499;28;20210;-72
2022/12/21 00:16:39;;;;;;;0.00;0.00;;;;;;;8.26;100.00;99807.69;5069341;28;20183;-73
2022/12/21 00:19:04;;;;;;;2.07;1.77;;;;;;;8.27;100.00;99810.09;5070579;28;20674;-72
2022/12/21 00:21:33;;;;;;;1.93;1.83;;;;;;;8.38;100.00;99812.56;5070524;28;20198;-73
2022/12/21 00:23:59;;;;;;;0.37;0.30;;;;;;;8.40;100.00;99802.19;5070223;28;20206;-73
2022/12/21 00:26:26;;;;;;;0.20;0.20;;;;;;;8.31;100.00;99800.19;5070525;28;20198;-72
2022/12/21 00:28:53;;;;;;;1.17;1.17;;;;;;;8.31;100.00;99802.09;5070448;28;20703;-72
2022/12/21 00:31:23;;;;;;;3.53;1.20;;;;;;;8.32;100.00;99801.78;5070546;28;20694;-72
2022/12/21 00:33:49;;;;;;;0.50;0.50;;;;;;;8.32;100.00;99793.63;5070213;28;20179;-74
2022/12/21 00:36:16;;;;;;;1.67;1.57;;;;;;;8.37;100.00;99797.34;5070382;28;20634;-72
2022/12/21 00:38:42;;;;;;;0.23;0.23;;;;;;;8.21;100.00;99795.00;5070706;28;20193;-72
2022/12/21 00:41:11;;;;;;;1.80;1.70;;;;;;;8.28;100.00;99795.38;5070964;28;20262;-72
2022/12/21 00:43:39;;;;;;;0.10;0.10;;;;;;;8.33;100.00;99789.78;5068859;28;20179;-72
2022/12/21 00:46:04;;;;;;;2.13;2.03;;;;;;;8.33;100.00;99800.66;5070749;28;20495;-73
2022/12/21 00:48:32;;;;;;;0.13;0.13;;;;;;;8.32;100.00;99803.72;5070551;28;20189;-73
2022/12/21 00:51:08;;;;;;;0.53;0.53;;;;;;;8.32;100.00;99796.34;5070113;28;20205;-72
2022/12/21 00:53:34;;;;;;;0.00;0.00;;;;;;;8.28;100.00;99806.25;5070437;28;20174;-72
2022/12/21 00:56:01;;;;;;;1.20;1.20;;;;;;;8.28;100.00;99792.66;5070255;28;20177;-72
2022/12/21 00:58:28;;;;;;;0.20;0.20;;;;;;;8.26;100.00;99791.34;5070432;28;20197;-73
2022/12/21 01:00:55;;;;;;;1.43;1.40;;;;;;;8.21;100.00;99788.75;5070151;28;20175;-72
2022/12/21 01:03:22;;;;;;;0.00;0.00;;;;;;;8.21;100.00;99803.16;5070000;28;20269;-72
2022/12/21 01:05:48;;;;;;;0.97;0.97;;;;;;;8.22;100.00;99798.53;5070143;28;20190;-73
2022/12/21 01:08:15;;;;;;;0.07;0.07;;;;;;;8.24;100.00;99802.53;5069638;28;20179;-72
2022/12/21 01:10:41;;;;;;;2.47;1.50;;;;;;;8.25;100.00;99812.31;5070321;28;20238;-72
2022/12/21 01:13:06;;;;;;;0.20;0.20;;;;;;;8.20;100.00;99800.75;5069821;28;20240;-72
2022/12/21 01:15:32;;;;;;;0.00;0.00;;;;;;;8.18;100.00;99800.25;5070114;28;20175;-72
2022/12/21 01:17:57;;;;;;;1.70;1.60;;;;;;;8.17;100.00;99806.81;5069882;28;20191;-72
2022/12/21 01:20:23;;;;;;;1.17;1.17;;;;;;;8.18;100.00;99806.50;5070002;28;20179;-72
2022/12/21 01:22:48;;;;;;;1.50;1.40;;;;;;;8.20;100.00;99812.44;5069652;28;20167;-72
2022/12/21 01:25:13;;;;;;;2.20;2.10;;;;;;;8.15;100.00;99798.16;5069863;28;20175;-72
2022/12/21 01:27:38;;;;;;;2.70;2.53;;;;;;;8.17;100.00;99807.63;5069849;28;20197;-73
2022/12/21 01:30:05;;;;;;;2.87;2.67;;;;;;;8.18;100.00;99814.66;5069873;28;20195;-72
2022/12/21 01:32:30;;;;;;;0.73;0.47;;;;;;;8.18;100.00;99820.13;5069623;28;20244;-74
2022/12/21 01:34:56;;;;;;;0.30;0.30;;;;;;;8.15;100.00;99815.28;5069888;28;20202;-72
2022/12/21 01:37:22;;;;;;;0.40;0.40;;;;;;;8.16;100.00;99819.63;5073220;28;20213;-73
2022/12/21 01:39:47;;;;;;;0.83;0.83;;;;;;;8.13;100.00;99816.72;5073306;28;20632;-72
2022/12/21 01:42:13;;;;;;;0.10;0.10;;;;;;;8.10;100.00;99820.03;5071989;28;20578;-73
2022/12/21 01:44:51;;;;;;;0.97;0.97;;;;;;;8.09;100.00;99821.16;5071679;28;20698;-73
2022/12/21 01:47:21;;;;;;;0.00;0.00;;;;;;;8.10;100.00;99828.19;5072272;28;20581;-72
2022/12/21 01:49:52;;;;;;;0.00;0.00;;;;;;;8.05;100.00;99834.59;5073441;28;20558;-72
2022/12/21 01:52:18;;;;;;;0.00;0.00;;;;;;;8.13;100.00;99830.34;5073183;28;20174;-72
2022/12/21 01:54:49;;;;;;;0.00;0.00;;;;;;;8.09;100.00;99834.75;5072975;28;20171;-72
2022/12/21 01:57:15;;;;;;;0.30;0.30;;;;;;;8.08;100.00;99817.63;5072971;28;20700;-73
2022/12/21 01:59:45;;;;;;;1.30;1.20;;;;;;;8.13;100.00;99824.88;5071524;28;20865;-72
2022/12/21 02:02:15;;;;;;;4.30;3.90;;;;;;;8.12;100.00;99832.25;5073057;28;20173;-72
2022/12/21 02:04:41;;;;;;;13.13;2.77;;;;;;;8.09;100.00;99832.84;5072459;28;20194;-71
2022/12/21 02:07:06;;;;;;;2.37;2.17;;;;;;;8.07;100.00;99837.78;5072722;28;20540;-70
2022/12/21 02:09:35;;;;;;;1.67;1.67;;;;;;;8.06;100.00;99836.19;5072322;28;20637;-71
2022/12/21 02:12:03;;;;;;;4.07;3.67;;;;;;;8.03;100.00;99834.09;5072624;28;20210;-70
2022/12/21 02:14:33;;;;;;;6.10;4.03;;;;;;;8.00;100.00;99827.34;5071179;28;20658;-71
2022/12/21 02:17:39;;;;;;;5.17;4.87;;;;;;;7.97;100.00;99832.63;5072838;28;20254;-70
2022/12/21 02:20:32;;;;;;;4.87;4.47;;;;;;;7.98;100.00;99828.78;5072603;28;20178;-70
2022/12/21 02:23:36;;;;;;;7.83;4.00;;;;;;;7.94;100.00;99830.50;5072331;28;20170;-70
2022/12/21 02:26:23;;;;;;;4.63;4.27;;;;;;;7.96;100.00;99823.66;5066765;28;20193;-71
2022/12/21 02:29:07;;;;;;;5.17;4.67;;;;;;;7.95;100.00;99829.38;5072397;28;20175;-70
2022/12/21 02:32:11;;;;;;;3.60;3.30;;;;;;;7.96;100.00;99825.56;5072392;28;20202;-70
2022/12/21 02:34:53;;;;;;;3.20;3.00;;;;;;;7.97;100.00;99819.81;5072100;28;20174;-70
2022/12/21 02:37:36;;;;;;;1.40;1.40;;;;;;;7.98;100.00;99824.16;5072195;28;20162;-71
2022/12/21 02:40:23;;;;;;;4.70;2.50;;;;;;;7.91;100.00;99840.06;5072414;28;20210;-71
2022/12/21 02:46:20;;;;;;;3.03;2.80;;;;;;;7.93;100.00;99821.53;5071740;28;20196;-70
2022/12/21 02:48:56;;;;;;;1.33;1.33;;;;;;;7.92;100.00;99821.84;5070702;28;20228;-71
2022/12/21 02:51:29;;;;;;;0.67;0.67;;;;;;;7.92;100.00;99824.56;5072020;28;20205;-71
2022/12/21 02:53:55;;;;;;;5.37;4.87;;;;;;;7.88;100.00;99823.59;5070189;28;20178;-71
2022/12/21 02:56:20;;;;;;;6.07;5.57;;;;;;;7.89;100.00;99822.47;5070421;28;20181;-70
2022/12/21 02:58:46;;;;;;;4.90;4.43;;;;;;;7.91;100.00;99829.19;5071631;28;20177;-71
2022/12/21 03:01:36;;;;;;;2.67;2.50;;;;;;;7.93;100.00;99828.88;5072071;28;20203;-70
2022/12/21 03:04:22;;;;;;;2.07;1.97;;;;;;;7.91;100.00;99829.19;5071216;28;20186;-70
2022/12/21 03:07:10;;;;;;;4.80;4.43;;;;;;;7.88;100.00;99826.31;5070237;28;20178;-71
2022/12/21 03:09:41;;;;;;;7.50;6.90;;;;;;;7.87;100.00;99828.22;5071094;28;20179;-70
2022/12/21 03:12:41;;;;;;;5.10;4.70;;;;;;;7.88;100.00;99823.59;5071458;28;20248;-70
2022/12/21 03:15:44;;;;;;;1.33;1.23;;;;;;;7.86;100.00;99825.81;5071196;28;20186;-70
2022/12/21 03:18:15;;;;;;;2.57;2.37;;;;;;;7.85;100.00;99829.66;5071190;28;20646;-71
2022/12/21 03:20:53;;;;;;;4.13;2.07;;;;;;;7.82;100.00;99825.63;5070148;28;20167;-70
2022/12/21 03:23:34;;;;;;;3.50;3.30;;;;;;;7.81;100.00;99831.34;5072120;28;20262;-75
2022/12/21 03:26:02;;;;;;;3.60;3.37;;;;;;;7.85;100.00;99835.09;5076524;28;20170;-74
2022/12/21 03:28:31;;;;;;;5.37;4.73;;;;;;;7.85;100.00;99835.09;5072794;28;20654;-74
2022/12/21 03:31:02;;;;;;;9.37;8.63;;;;;;;7.87;100.00;99833.66;5071560;28;20199;-73
2022/12/21 03:33:32;;;;;;;4.10;3.67;;;;;;;7.86;100.00;99837.50;5071071;28;20254;-75
2022/12/21 03:36:04;;;;;;;6.03;5.40;;;;;;;7.84;100.00;99828.84;5071420;28;20262;-75
2022/12/21 03:38:36;;;;;;;1.90;1.80;;;;;;;7.89;100.00;99817.03;5071744;28;20170;-75
2022/12/21 03:41:06;;;;;;;5.80;5.40;;;;;;;7.87;100.00;99821.97;5071219;28;20480;-74
2022/12/21 03:43:35;;;;;;;5.87;5.27;;;;;;;7.91;100.00;99828.41;5071341;28;20179;-73
2022/12/21 03:46:07;;;;;;;4.47;4.17;;;;;;;7.90;100.00;99832.22;5071012;28;20202;-74
2022/12/21 03:48:35;;;;;;;3.23;3.03;;;;;;;7.86;100.00;99833.97;5070809;28;20582;-75
2022/12/21 03:51:07;;;;;;;6.87;6.23;;;;;;;7.84;100.00;99834.28;5070789;28;20241;-73
2022/12/21 03:53:37;;;;;;;6.13;5.63;;;;;;;7.82;100.00;99825.63;5070563;28;20672;-75
2022/12/21 03:56:05;;;;;;;3.43;3.13;;;;;;;7.86;100.00;99825.81;5071158;28;20194;-74
2022/12/21 03:58:32;;;;;;;8.77;8.00;;;;;;;7.85;100.00;99819.56;5070188;28;20175;-75
2022/12/21 04:01:15;;;;;;;5.00;4.67;;;;;;;7.86;100.00;99814.94;5070766;28;20185;-74
2022/12/21 04:03:44;;;;;;;5.33;4.93;;;;;;;7.87;100.00;99816.53;5069294;28;20200;-74
2022/12/21 04:06:19;;;;;;;7.50;6.70;;;;;;;7.88;100.00;99809.97;5070557;28;20177;-75
2022/12/21 04:08:46;;;;;;;3.97;3.77;;;;;;;7.89;100.00;99809.66;5070033;28;20368;-73
2022/12/21 04:12:36;;;;;;;6.53;5.37;;;;;;;7.87;100.00;99811.91;5070722;28;20539;-74
2022/12/21 04:13:58;;;;;;;7.63;5.77;;;;;;;7.84;100.00;99801.66;5070199;28;20212;-75
2022/12/21 04:16:24;;;;;;;5.80;5.40;;;;;;;7.83;100.00;99819.06;5070600;28;20167;-76
2022/12/21 04:21:33;;;;;;;18.93;6.30;;;;;;;7.81;100.00;99804.16;5070635;28;20252;-75
2022/12/21 04:29:26;;;;;;;8.63;6.23;;;;;;;7.82;100.00;99809.31;5070651;28;20707;-74
2022/12/21 04:31:51;;;;;;;4.53;4.23;;;;;;;7.83;100.00;99816.34;5070136;28;20206;-75
2022/12/21 04:34:16;;;;;;;3.63;3.33;;;;;;;7.83;100.00;99823.72;5070115;28;20212;-74
2022/12/21 04:39:25;;;;;;;5.33;4.93;;;;;;;7.83;100.00;99818.28;5070247;28;20475;-75
2022/12/21 04:41:51;;;;;;;6.83;6.33;;;;;;;7.80;100.00;99816.94;5070081;28;20202;-74
2022/12/21 04:44:16;;;;;;;3.80;3.03;;;;;;;7.81;100.00;99820.47;5069851;28;20166;-73
2022/12/21 04:46:42;;;;;;;2.87;2.67;;;;;;;7.79;100.00;99820.78;5070409;28;20262;-75
2022/12/21 04:49:07;;;;;;;3.57;3.37;;;;;;;7.81;100.00;99818.59;5070110;28;20166;-75
2022/12/21 04:51:32;;;;;;;4.70;4.30;;;;;;;7.85;100.00;99824.22;5070079;28;20202;-73
2022/12/21 04:53:58;;;;;;;3.50;2.50;;;;;;;7.85;100.00;99822.28;5069963;28;20528;-74
2022/12/21 04:56:23;;;;;;;1.53;1.43;;;;;;;7.84;100.00;99831.56;5070144;28;20680;-74
2022/12/21 04:58:48;;;;;;;0.50;0.50;;;;;;;7.86;100.00;99829.34;5070034;28;20179;-73
2022/12/21 05:01:16;;;;;;;0.30;0.30;;;;;;;7.88;100.00;99823.59;5070028;28;20406;-75
2022/12/21 05:03:42;;;;;;;0.00;0.00;;;;;;;7.88;100.00;99810.78;5069642;28;20183;-73
2022/12/21 05:06:09;;;;;;;0.00;0.00;;;;;;;7.88;100.00;99813.50;5069558;28;20422;-73
2022/12/21 05:08:35;;;;;;;0.00;0.00;;;;;;;7.94;100.00;99806.00;5069417;28;20175;-75
2022/12/21 05:11:10;;;;;;;1.17;1.17;;;;;;;8.00;100.00;99804.78;5072979;28;20195;-74
2022/12/21 05:13:35;;;;;;;1.60;1.60;;;;;;;8.02;100.00;99799.84;5073505;28;20174;-72
2022/12/21 05:16:05;;;;;;;1.50;1.40;;;;;;;8.00;100.00;99802.06;5073472;28;20698;-74
2022/12/21 05:18:30;;;;;;;3.27;2.90;;;;;;;7.92;100.00;99810.97;5073459;28;20235;-74
2022/12/21 05:20:56;;;;;;;4.63;4.23;;;;;;;7.92;100.00;99816.41;5073768;28;20166;-72
2022/12/21 05:23:21;;;;;;;5.80;5.40;;;;;;;7.87;100.00;99813.81;5073415;28;20205;-75
2022/12/21 05:25:46;;;;;;;6.73;5.17;;;;;;;7.86;100.00;99814.94;5073338;28;20254;-73
2022/12/21 05:28:12;;;;;;;3.37;3.17;;;;;;;7.88;100.00;99802.63;5073362;28;20653;-74
2022/12/21 05:30:37;;;;;;;2.00;1.90;;;;;;;7.89;100.00;99808.88;5073537;28;20194;-74
2022/12/21 05:33:02;;;;;;;5.63;5.23;;;;;;;7.84;100.00;99798.94;5073009;28;20188;-75
2022/12/21 05:35:27;;;;;;;1.63;1.53;;;;;;;7.84;100.00;99798.94;5073215;28;20174;-73
2022/12/21 05:37:53;;;;;;;6.33;5.80;;;;;;;7.83;100.00;99793.81;5073259;28;20601;-73
2022/12/21 05:40:18;;;;;;;8.13;7.43;;;;;;;7.82;100.00;99793.00;5073014;28;20182;-75
2022/12/21 05:42:43;;;;;;;3.80;3.47;;;;;;;7.81;100.00;99796.00;5073353;28;20693;-75
2022/12/21 05:45:09;;;;;;;4.27;3.90;;;;;;;7.78;100.00;99796.63;5071621;28;20174;-73
2022/12/21 05:47:34;;;;;;;3.97;3.67;;;;;;;7.80;100.00;99802.56;5072905;28;20182;-74
2022/12/21 05:50:00;;;;;;;2.73;2.53;;;;;;;7.76;100.00;99796.94;5072871;28;20573;-73
2022/12/21 05:52:25;;;;;;;7.83;4.03;;;;;;;7.76;100.00;99799.66;5072790;28;20179;-74
2022/12/21 05:54:50;;;;;;;2.90;2.70;;;;;;;7.78;100.00;99786.53;5072868;28;20171;-75
2022/12/21 05:57:15;;;;;;;5.57;5.17;;;;;;;7.79;100.00;99790.88;5072802;28;20650;-75
2022/12/21 05:59:41;;;;;;;6.20;5.67;;;;;;;7.81;100.00;99799.56;5073047;28;20166;-74
2022/12/21 06:02:06;;;;;;;5.57;5.07;;;;;;;7.79;100.00;99790.88;5072816;28;20179;-73
2022/12/21 06:04:31;;;;;;;5.10;4.60;;;;;;;7.83;100.00;99799.25;5072337;28;20179;-75
2022/12/21 06:06:57;;;;;;;8.57;7.87;;;;;;;7.83;100.00;99796.53;5072639;28;20171;-74
2022/12/21 06:09:23;;;;;;;3.57;3.37;;;;;;;7.84;100.00;99800.84;5072151;28;20185;-74
2022/12/21 06:11:48;;;;;;;7.30;6.63;;;;;;;7.84;100.00;99792.69;5072257;28;20198;-75
2022/12/21 06:14:13;;;;;;;10.37;9.47;;;;;;;7.85;100.00;99797.81;5072503;28;20171;-75
2022/12/21 06:16:39;;;;;;;8.27;7.47;;;;;;;7.86;100.00;99804.84;5072600;28;20166;-74
2022/12/21 06:19:04;;;;;;;4.93;4.50;;;;;;;7.87;100.00;99800.22;5072420;28;20564;-75
2022/12/21 06:21:29;;;;;;;8.43;7.67;;;;;;;7.87;100.00;99803.75;5071692;28;20179;-75
2022/12/21 06:23:55;;;;;;;6.73;6.13;;;;;;;7.84;100.00;99796.22;5072145;28;20173;-75
2022/12/21 06:26:20;;;;;;;8.43;7.63;;;;;;;7.88;100.00;99799.91;5072128;28;20167;-74
2022/12/21 06:28:48;;;;;;;8.33;7.73;;;;;;;7.89;100.00;99801.50;5072317;28;20192;-73
2022/12/21 06:31:13;;;;;;;3.90;3.60;;;;;;;7.91;100.00;99803.91;5072184;28;20210;-76
2022/12/21 06:33:39;;;;;;;7.73;6.07;;;;;;;7.88;100.00;99810.78;5072161;28;20575;-75
2022/12/21 06:36:06;;;;;;;7.77;7.17;;;;;;;7.90;100.00;99808.56;5072025;28;20178;-74
2022/12/21 06:38:32;;;;;;;7.53;5.60;;;;;;;7.87;100.00;99814.63;5071914;28;20661;-76
2022/12/21 06:41:00;;;;;;;9.00;7.77;;;;;;;7.88;100.00;99808.06;5071828;28;20194;-74
2022/12/21 06:43:27;;;;;;;6.27;5.77;;;;;;;7.90;100.00;99805.03;5071625;28;20179;-74
2022/12/21 06:45:58;;;;;;;6.60;4.53;;;;;;;7.91;100.00;99812.09;5071685;28;20190;-72
2022/12/21 06:48:26;;;;;;;6.10;5.70;;;;;;;7.90;100.00;99814.00;5071669;28;20174;-74
2022/12/21 06:50:53;;;;;;;10.13;6.50;;;;;;;7.91;100.00;99817.53;5071798;28;20202;-74
2022/12/21 06:53:19;;;;;;;5.03;4.60;;;;;;;7.91;100.00;99820.25;5071426;28;20173;-73
2022/12/21 06:55:44;;;;;;;6.87;6.37;;;;;;;7.92;100.00;99825.38;5071850;28;20174;-75
2022/12/21 06:58:09;;;;;;;5.80;5.40;;;;;;;7.93;100.00;99835.13;5071607;28;20170;-75
2022/12/21 07:00:34;;;;;;;2.80;2.60;;;;;;;7.93;100.00;99834.34;5071742;28;20205;-75
2022/12/21 07:03:00;;;;;;;2.23;2.13;;;;;;;7.92;100.00;99844.41;5071355;28;20191;-75
2022/12/21 07:05:25;;;;;;;2.87;2.77;;;;;;;7.92;100.00;99835.44;5072017;28;20177;-69
2022/12/21 07:07:50;;;;;;;3.43;3.17;;;;;;;7.90;100.00;99835.75;5071926;28;20220;-71
2022/12/21 07:10:15;;;;;;;4.67;4.27;;;;;;;7.91;100.00;99831.13;5070699;28;20197;-71
2022/12/21 07:12:41;;;;;;;5.27;4.90;;;;;;;7.93;100.00;99842.50;5071584;28;20174;-71
2022/12/21 07:15:07;;;;;;;1.77;1.67;;;;;;;7.89;100.00;99834.16;5071687;28;20167;-71
2022/12/21 07:17:32;;;;;;;10.13;7.07;;;;;;;7.91;100.00;99833.84;5071563;28;20179;-71
2022/12/21 07:19:57;;;;;;;3.90;3.70;;;;;;;7.92;100.00;99835.44;5071598;28;20202;-73
2022/12/21 07:22:23;;;;;;;2.17;2.07;;;;;;;7.90;100.00;99838.47;5071524;28;20194;-71
2022/12/21 07:24:49;;;;;;;4.77;4.30;;;;;;;7.93;100.00;99831.59;5069894;28;20658;-73
2022/12/21 07:27:14;;;;;;;2.27;2.07;;;;;;;7.94;100.00;99831.31;5071421;28;20231;-75
2022/12/21 07:29:39;;;;;;;3.90;3.70;;;;;;;7.94;100.00;99833.22;5071688;28;20182;-73
2022/12/21 07:32:05;;;;;;;3.03;2.80;;;;;;;7.93;100.00;99837.06;5071275;28;20310;-72
2022/12/21 07:34:30;;;;;;;6.30;2.93;;;;;;;7.92;100.00;99838.16;5070353;28;20433;-73
2022/12/21 07:36:55;;;;;;;3.27;3.07;;;;;;;7.92;100.00;99838.16;5069825;28;20186;-72
2022/12/21 07:39:20;;;;;;;1.47;1.33;;;;;;;7.94;100.00;99838.66;5071244;28;20175;-73
2022/12/21 07:41:46;;;;;;;4.03;3.57;;;;;;;7.93;100.00;99837.84;5071236;28;20225;-72
2022/12/21 07:44:11;;;;;;;2.27;2.17;;;;;;;7.98;100.00;99839.66;5070942;28;20529;-73
2022/12/21 07:46:36;;;;;;;1.20;1.20;;;;;;;7.98;100.00;99834.22;5071003;28;20206;-73
2022/12/21 07:49:02;;;;;;;0.10;0.10;;;;;;;7.99;100.00;99830.38;5071066;28;20178;-74
2022/12/21 07:51:27;;;;;;;1.67;1.57;;;;;;;7.99;100.00;99828.47;5071087;28;20202;-76
2022/12/21 07:53:52;;;;;;;0.00;0.00;;;;;;;7.99;100.00;99824.94;5070828;28;20245;-76
2022/12/21 07:56:18;;;;;;;1.10;1.10;;;;;;;7.99;100.00;99831.19;5071005;28;20177;-73
2022/12/21 07:58:44;;;;;;;2.47;2.37;;;;;;;7.98;100.00;99823.34;5071089;28;20202;-74
2022/12/21 08:01:12;;;;;;;2.07;1.97;;;;;;;7.97;100.00;99827.97;5070929;28;20182;-73
2022/12/21 08:03:41;;;;;;;1.70;1.60;;;;;;;7.99;100.00;99833.13;5070745;28;20618;-74
2022/12/21 08:06:07;;;;;;;2.60;2.43;;;;;;;8.00;100.00;99826.56;5068943;28;20438;-74
2022/12/21 08:08:34;;;;;;;1.00;1.00;;;;;;;8.05;100.00;99826.41;5070630;28;20253;-73
2022/12/21 08:10:59;;;;;;;1.50;1.30;;;;;;;8.07;100.00;99830.44;5070525;28;20618;-73
2022/12/21 08:13:24;;;;;;;1.70;1.60;;;;;;;8.09;100.00;99837.47;5070595;28;20217;-74
2022/12/21 08:15:58;;;;;;;3.97;3.77;;;;;;;8.09;100.00;99826.59;5070644;28;20177;-75
2022/12/21 08:18:23;;;;;;;1.30;1.30;;;;;;;8.12;100.00;99817.84;5070778;28;20249;-72
2022/12/21 08:20:49;;;;;;;3.43;3.13;;;;;;;8.13;100.00;99809.38;5070830;28;20560;-72
2022/12/21 08:23:14;;;;;;;0.47;0.47;;;;;;;8.15;100.00;99804.41;5070464;28;20626;-73
2022/12/21 08:25:39;;;;;;;2.77;2.57;;;;;;;8.17;100.00;99802.19;5070681;28;20181;-72
2022/12/21 08:28:05;;;;;;;1.63;1.60;;;;;;;8.18;100.00;99805.69;5070279;28;20186;-72
2022/12/21 08:30:30;;;;;;;4.47;4.07;;;;;;;8.16;100.00;99814.19;5069269;28;20739;-73
2022/12/21 08:32:55;;;;;;;1.27;1.20;;;;;;;8.19;100.00;99802.66;5070420;28;20201;-73
2022/12/21 08:35:20;;;;;;;0.10;0.10;;;;;;;8.21;100.00;99797.72;5070723;28;20174;-72
2022/12/21 08:37:46;;;;;;;0.10;0.10;;;;;;;8.21;100.00;99799.63;5070545;28;20170;-71
2022/12/21 08:40:11;;;;;;;3.00;2.00;;;;;;;8.23;100.00;99802.84;5070852;28;20178;-72
2022/12/21 08:42:37;;;;;;;2.33;2.23;;;;;;;8.25;100.00;99823.22;5070348;28;20216;-74
2022/12/21 08:45:02;;;;;;;1.50;1.40;;;;;;;8.24;100.00;99805.25;5072172;28;20182;-72
2022/12/21 08:47:27;;;;;;;1.57;1.17;;;;;;;8.26;100.00;99803.03;5074715;28;20204;-72
2022/12/21 08:49:53;;;;;;;4.03;3.63;;;;;;;8.27;100.00;99799.22;5074775;28;20545;-73
2022/12/21 08:52:18;;;;;;;0.30;0.30;;;;;;;8.38;100.00;99804.41;5074353;28;20196;-72
2022/12/21 08:54:43;;;;;;;0.00;0.00;;;;;;;8.39;100.00;99811.44;5074257;28;20280;-72
2022/12/21 08:57:08;;;;;;;0.87;0.87;;;;;;;8.41;100.00;99810.03;5074416;28;20178;-71
2022/12/21 08:59:34;;;;;;;0.00;0.00;;;;;;;8.41;100.00;99803.78;5073128;28;20261;-71
2022/12/21 09:01:59;;;;;;;0.67;0.67;;;;;;;8.37;100.00;99814.47;5073053;28;20186;-71
2022/12/21 09:04:24;;;;;;;0.30;0.30;;;;;;;8.46;100.00;99812.63;5072641;28;20194;-72
2022/12/21 09:06:50;;;;;;;0.00;0.00;;;;;;;8.50;100.00;99810.88;5074119;28;20182;-72
2022/12/21 09:09:15;;;;;;;0.00;0.00;;;;;;;8.49;100.00;99816.63;5073961;28;20677;-73
2022/12/21 09:11:40;;;;;;;0.20;0.20;;;;;;;8.59;100.00;99817.16;5073964;28;20210;-71
2022/12/21 09:14:06;;;;;;;0.00;0.00;;;;;;;8.37;100.00;99808.22;5073545;28;20174;-72
2022/12/21 09:16:31;;;;;;;0.00;0.00;;;;;;;8.41;100.00;99811.97;5073853;28;20305;-72
2022/12/21 09:18:56;;;;;;;0.00;0.00;;;;;;;8.41;100.00;99823.66;5073909;28;20245;-72
2022/12/21 09:21:23;;;;;;;0.00;0.00;;;;;;;8.52;100.00;99830.41;5074301;28;20525;-71
2022/12/21 09:23:48;;;;;;;0.00;0.00;;;;;;;8.42;100.00;99836.16;5073676;28;20685;-72
2022/12/21 09:26:15;;;;;;;0.00;0.00;;;;;;;8.32;100.00;99839.88;5073609;28;20171;-72
2022/12/21 09:28:41;;;;;;;0.53;0.53;;;;;;;8.35;100.00;99838.50;5072371;28;20265;-72
2022/12/21 09:31:09;;;;;;;0.00;0.00;;;;;;;8.41;100.00;99833.75;5073619;28;20281;-71
2022/12/21 09:33:36;;;;;;;0.00;0.00;;;;;;;8.48;100.00;99832.16;5073440;28;20184;-72
2022/12/21 09:36:01;;;;;;;0.00;0.00;;;;;;;8.24;100.00;99823.50;5073547;28;20254;-71
2022/12/21 09:38:29;;;;;;;0.00;0.00;;;;;;;8.48;100.00;99824.00;5073526;28;20265;-71
2022/12/21 09:41:00;;;;;;;0.00;0.00;;;;;;;8.51;100.00;99822.56;5072083;28;20186;-72
2022/12/21 09:43:38;;;;;;;0.00;0.00;;;;;;;8.63;100.00;99817.34;5073095;28;20300;-71
2022/12/21 09:46:07;;;;;;;0.00;0.00;;;;;;;8.61;100.00;99814.94;5073404;28;20561;-73
2022/12/21 09:48:48;;;;;;;0.00;0.00;;;;;;;8.73;100.00;99822.53;5073234;28;20202;-72
2022/12/21 09:51:20;;;;;;;0.00;0.00;;;;;;;8.77;100.00;99823.47;5073503;28;20654;-73
2022/12/21 09:53:50;;;;;;;0.90;0.90;;;;;;;8.83;100.00;99826.88;5073204;28;20177;-72
2022/12/21 09:56:20;;;;;;;7.37;6.90;;;;;;;8.80;100.00;99822.84;5072301;28;20170;-72
2022/12/21 09:58:51;;;;;;;0.00;0.00;;;;;;;8.62;100.00;99832.06;5073257;28;20653;-71
2022/12/21 10:01:25;;;;;;;0.00;0.00;;;;;;;8.38;100.00;99823.44;5071924;28;20405;-74
2022/12/21 10:04:14;;;;;;;0.53;0.53;;;;;;;8.56;100.00;99836.06;5071593;28;20186;-72
2022/12/21 10:07:19;;;;;;;0.00;0.00;;;;;;;8.65;100.00;99836.88;5073026;28;20167;-72
2022/12/21 10:09:53;;;;;;;0.00;0.00;;;;;;;8.70;100.00;99825.88;5072847;28;20542;-72
2022/12/21 10:12:28;;;;;;;0.00;0.00;;;;;;;8.62;100.00;99826.63;5071905;28;20301;-71
2022/12/21 10:15:01;;;;;;;0.00;0.00;;;;;;;8.39;100.00;99816.88;5073166;28;20174;-73
2022/12/21 10:17:45;;;;;;;0.07;0.07;;;;;;;8.56;100.00;99828.69;5073109;28;20258;-72
2022/12/21 10:20:35;;;;;;;0.00;0.00;;;;;;;8.61;100.00;99816.84;5072890;28;20209;-71
2022/12/21 10:23:04;;;;;;;0.00;0.00;;;;;;;8.66;100.00;99824.88;5072524;28;20181;-71
2022/12/21 10:25:45;;;;;;;0.00;0.00;;;;;;;8.61;100.00;99817.66;5072718;28;20527;-71
2022/12/21 10:28:33;;;;;;;0.00;0.00;;;;;;;8.70;100.00;99833.25;5072664;28;20661;-72
2022/12/21 10:31:07;;;;;;;0.00;0.00;;;;;;;8.60;100.00;99828.88;5072617;28;20190;-72
2022/12/21 10:33:38;;;;;;;0.00;0.00;;;;;;;8.60;100.00;99823.41;5072380;28;20185;-72
2022/12/21 10:36:04;;;;;;;0.00;0.00;;;;;;;8.65;100.00;99820.53;5072841;28;20519;-71
2022/12/21 10:38:33;;;;;;;0.30;0.30;;;;;;;8.49;100.00;99813.91;5072314;28;20247;-72
2022/12/21 10:41:03;;;;;;;0.00;0.00;;;;;;;8.51;100.00;99817.91;5072327;28;20171;-72
2022/12/21 10:43:38;;;;;;;0.10;0.10;;;;;;;8.61;100.00;99817.66;5072134;28;20179;-71
2022/12/21 10:46:05;;;;;;;0.50;0.50;;;;;;;8.64;100.00;99818.94;5072264;28;20571;-72
2022/12/21 10:48:30;;;;;;;1.53;1.43;;;;;;;8.66;100.00;99813.97;5072237;28;20166;-72
2022/12/21 10:51:13;;;;;;;0.00;0.00;;;;;;;8.61;100.00;99801.31;5072175;28;20212;-71
2022/12/21 10:53:39;;;;;;;1.20;1.20;;;;;;;8.54;100.00;99802.91;5072218;28;20188;-74
2022/12/21 10:56:05;;;;;;;2.17;0.97;;;;;;;8.56;100.00;99774.25;5072278;28;20690;-72
2022/12/21 10:58:34;;;;;;;0.00;0.00;;;;;;;8.58;100.00;99782.09;5071900;28;20177;-72
2022/12/21 11:01:03;;;;;;;0.00;0.00;;;;;;;8.55;100.00;99780.00;5072063;28;20175;-72
2022/12/21 11:03:37;;;;;;;0.00;0.00;;;;;;;8.55;100.00;99766.38;5073009;28;20186;-72
2022/12/21 11:06:17;;;;;;;0.00;0.00;;;;;;;8.59;100.00;99756.47;5077914;28;20175;-72
2022/12/21 11:08:48;;;;;;;0.00;0.00;;;;;;;8.70;100.00;99762.44;5071732;28;20638;-72
2022/12/21 11:11:30;;;;;;;0.23;0.23;;;;;;;8.64;100.00;99757.13;5071880;28;20194;-73
2022/12/21 11:14:03;;;;;;;0.00;0.00;;;;;;;8.55;100.00;99752.78;5071642;28;20638;-72
2022/12/21 11:16:32;;;;;;;0.00;0.00;;;;;;;8.64;100.00;99750.88;5072553;28;20198;-72
2022/12/21 11:19:00;;;;;;;0.00;0.00;;;;;;;8.83;100.00;99756.88;5072498;28;20189;-72
2022/12/21 11:21:39;;;;;;;2.00;1.90;;;;;;;8.86;100.00;99766.34;5071930;28;20527;-72
2022/12/21 11:24:15;;;;;;;0.00;0.00;;;;;;;8.87;100.00;99770.66;5070168;28;20177;-72
2022/12/21 11:26:44;;;;;;;0.00;0.00;;;;;;;8.88;100.00;99759.44;5071519;28;20645;-72
2022/12/21 11:29:21;;;;;;;0.00;0.00;;;;;;;8.85;100.00;99756.56;5071470;28;20178;-72
2022/12/21 11:31:46;;;;;;;0.00;0.00;;;;;;;8.93;100.00;99750.31;5071711;28;20657;-72
2022/12/21 11:34:30;;;;;;;14.27;13.37;;;;;;;8.93;100.00;99740.22;5071112;28;20258;-73
2022/12/21 11:37:00;;;;;;;0.00;0.00;;;;;;;8.87;100.00;99746.94;5071237;28;20231;-73
2022/12/21 11:39:26;;;;;;;0.00;0.00;;;;;;;8.85;100.00;99743.75;5071134;28;20265;-73
2022/12/21 11:41:52;;;;;;;0.00;0.00;;;;;;;8.84;100.00;99742.13;5071233;28;20217;-73
2022/12/21 11:44:28;;;;;;;0.20;0.10;;;;;;;8.96;100.00;99741.50;5070996;28;20780;-73
2022/12/21 11:47:31;;;;;;;0.07;0.07;;;;;;;8.91;100.00;99750.63;5071301;28;20182;-75
2022/12/21 11:50:07;;;;;;;0.67;0.63;;;;;;;9.02;100.00;99759.31;5047479;28;20654;-75
2022/12/21 11:52:50;;;;;;;0.13;0.13;;;;;;;9.02;100.00;99758.50;5071026;28;20193;-74
2022/12/21 11:55:43;;;;;;;0.00;0.00;;;;;;;8.98;100.00;99754.81;5071189;28;20170;-75
2022/12/21 11:58:26;;;;;;;0.00;0.00;;;;;;;8.94;100.00;99757.34;5070797;28;20192;-75
2022/12/21 12:01:10;;;;;;;1.97;1.80;;;;;;;8.79;100.00;99760.53;5069661;28;20194;-75